Terminal Aerodrome Forecast
Issued by NWS

Home | Current Version | Previous Version | Text Only | Print | Product List | Glossary On
Versions: 1 2 3 4 5 6 7 8 9 10 11 12 13 14 15 16 17 18 19 20 21 22 23 24 25 26
280
FTUS45 KBOI 091120
TAFBKE
TAF
KBKE 091120Z 0912/1012 VRB05KT P6SM OVC025
     FM092100 VRB05KT 2SM -SN OVC015
      TEMPO 0922/1001 1SM -SN BKN008=

USA.gov is the U.S. government's official web portal to all federal, state and local government web resources and services.